Time;durP1;ratioP1;P1;durP2;ratioP2;P2;SDS_P1;SDS_P2;PMS_P1;PMS_P2;Temp;Humidity;BMP_temperature;BMP_pressure;BME280_temperature;BME280_humidity;BME280_pressure;Samples;Min_cycle;Max_cycle;Signal;HPM_P1;HPM_P2
2023/10/11 06:03:57;;;;;;;37.75;17.77;;;19.70;99.90;;;;;;5772473;23;20757;-85
2023/10/11 06:06:45;;;;;;;41.15;17.95;;;19.80;99.90;;;;;;4939777;29;20122;-85
2023/10/11 06:09:25;;;;;;;41.10;17.25;;;19.90;99.90;;;;;;4970681;28;20056;-84
2023/10/11 06:11:54;;;;;;;33.70;17.67;;;20.00;99.90;;;;;;4953728;29;20032;-85
2023/10/11 06:14:26;;;;;;;34.10;16.45;;;20.20;99.90;;;;;;4940766;29;20143;-85
2023/10/11 06:16:57;;;;;;;36.53;18.33;;;20.40;99.90;;;;;;4899771;29;20064;-85
2023/10/11 06:19:28;;;;;;;40.58;18.08;;;20.50;99.90;;;;;;4900174;29;20048;-85
2023/10/11 06:21:59;;;;;;;33.70;16.73;;;20.70;99.90;;;;;;4915208;29;20112;-84
2023/10/11 06:24:36;;;;;;;33.47;15.82;;;20.80;99.90;;;;;;4916082;29;20051;-84
2023/10/11 06:29:37;;;;;;;31.63;16.30;;;21.30;99.90;;;;;;4931132;29;20037;-85
2023/10/11 06:32:11;;;;;;;29.75;15.57;;;21.30;99.90;;;;;;4900568;29;20043;-85
2023/10/11 06:34:45;;;;;;;25.98;15.13;;;21.30;99.90;;;;;;4906228;29;20036;-85
2023/10/11 06:37:19;;;;;;;30.27;16.02;;;21.30;99.90;;;;;;4918054;29;20394;-85
2023/10/11 06:42:31;;;;;;;29.52;14.57;;;21.30;99.90;;;;;;4950294;29;20032;-86
2023/10/11 06:45:05;;;;;;;25.48;14.77;;;21.60;99.90;;;;;;4924508;29;20450;-85
2023/10/11 06:48:06;;;;;;;24.92;15.15;;;22.00;99.90;;;;;;4915215;29;20044;-83
2023/10/11 06:50:46;;;;;;;21.55;15.43;;;22.50;99.90;;;;;;4899703;29;20549;-77
2023/10/11 06:53:13;;;;;;;18.08;15.48;;;23.00;99.90;;;;;;4899729;29;20490;-78
2023/10/11 06:55:47;;;;;;;24.08;16.95;;;23.50;99.90;;;;;;4914143;29;20107;-77
2023/10/11 06:58:19;;;;;;;18.67;16.58;;;23.80;99.90;;;;;;4918406;29;20036;-77
2023/10/11 07:00:46;;;;;;;26.95;18.90;;;23.80;99.90;;;;;;4918226;29;20051;-77
2023/10/11 07:05:49;;;;;;;20.95;18.70;;;24.50;99.90;;;;;;4902370;29;20410;-77
2023/10/11 07:08:20;;;;;;;24.15;18.13;;;24.70;99.90;;;;;;4929722;29;20033;-77
2023/10/11 07:11:40;;;;;;;23.70;18.98;;;24.80;99.90;;;;;;4899372;29;20127;-77
2023/10/11 07:14:00;;;;;;;21.08;19.20;;;25.30;99.90;;;;;;4922015;29;20073;-77
2023/10/11 07:16:29;;;;;;;22.55;20.02;;;25.70;99.90;;;;;;4918068;29;20034;-77
2023/10/11 07:18:58;;;;;;;25.52;23.10;;;25.90;99.90;;;;;;4917977;29;20035;-77
2023/10/11 07:24:32;;;;;;;27.02;22.90;;;26.40;99.90;;;;;;4917079;29;20119;-76
2023/10/11 07:27:26;;;;;;;26.45;23.75;;;26.30;99.90;;;;;;4917827;29;20159;-77
2023/10/11 07:29:55;;;;;;;27.98;24.92;;;26.70;99.90;;;;;;4917669;29;20036;-77
2023/10/11 07:32:23;;;;;;;33.00;25.90;;;26.90;99.90;;;;;;4917733;29;20024;-78
2023/10/11 07:34:54;;;;;;;29.48;26.77;;;26.80;99.90;;;;;;4914783;29;20028;-77
2023/10/11 07:37:26;;;;;;;32.30;29.10;;;26.60;99.90;;;;;;4917635;29;20032;-77
2023/10/11 07:40:00;;;;;;;32.13;29.00;;;26.70;99.90;;;;;;4917604;29;20028;-77
2023/10/11 07:42:37;;;;;;;32.28;29.52;;;26.60;99.90;;;;;;4917607;29;20103;-77
2023/10/11 07:45:12;;;;;;;31.23;28.58;;;26.70;99.90;;;;;;4917419;29;20119;-79
2023/10/11 07:47:51;;;;;;;31.77;29.05;;;26.60;99.90;;;;;;4917107;29;20028;-76
2023/10/11 07:50:24;;;;;;;30.85;28.35;;;26.90;99.90;;;;;;4917206;29;20033;-76
2023/10/11 07:52:56;;;;;;;31.88;28.38;;;27.20;99.90;;;;;;4917518;29;20067;-77
2023/10/11 07:55:27;;;;;;;31.67;28.80;;;27.30;99.90;;;;;;4905490;29;20120;-76
2023/10/11 07:58:00;;;;;;;31.35;28.52;;;27.10;99.90;;;;;;4899439;29;20040;-77
2023/10/11 08:00:30;;;;;;;30.13;27.58;;;27.00;99.90;;;;;;4899021;29;20077;-77
2023/10/11 08:03:04;;;;;;;32.42;29.23;;;27.00;99.90;;;;;;4897553;29;20115;-77
2023/10/11 08:05:53;;;;;;;32.58;29.90;;;27.00;99.90;;;;;;4910726;29;20052;-77
2023/10/11 08:08:21;;;;;;;31.98;29.15;;;27.10;99.90;;;;;;4947615;29;20389;-77
2023/10/11 08:10:52;;;;;;;31.90;28.85;;;27.50;99.90;;;;;;4931508;29;20417;-77
2023/10/11 08:13:26;;;;;;;32.53;29.45;;;27.40;99.90;;;;;;4917157;29;20484;-77
2023/10/11 08:16:05;;;;;;;32.78;29.77;;;27.70;99.90;;;;;;4901351;29;20036;-78
2023/10/11 08:18:33;;;;;;;31.75;29.17;;;27.40;99.90;;;;;;4898119;29;20039;-78
2023/10/11 08:21:00;;;;;;;32.55;29.38;;;27.60;99.90;;;;;;4898121;29;20079;-78
2023/10/11 08:23:29;;;;;;;33.60;30.50;;;27.40;99.90;;;;;;4897974;29;20037;-77
2023/10/11 08:25:57;;;;;;;33.22;29.90;;;27.40;99.90;;;;;;4913428;29;20039;-78
2023/10/11 08:28:34;;;;;;;32.58;29.90;;;27.60;99.90;;;;;;4916850;29;20024;-78
2023/10/11 08:31:01;;;;;;;32.85;29.98;;;27.30;99.90;;;;;;4916913;29;20036;-77
2023/10/11 08:33:31;;;;;;;32.03;29.65;;;27.40;99.90;;;;;;4916812;29;20051;-77
2023/10/11 08:35:58;;;;;;;32.95;30.05;;;27.70;99.90;;;;;;4901165;29;20029;-77
2023/10/11 08:38:30;;;;;;;32.70;30.02;;;27.60;99.90;;;;;;4897896;29;20107;-77
2023/10/11 08:41:07;;;;;;;33.58;30.25;;;27.60;99.90;;;;;;4897895;29;20033;-77
2023/10/11 08:43:38;;;;;;;34.08;30.42;;;27.60;99.90;;;;;;4897782;29;20107;-77
2023/10/11 08:46:09;;;;;;;34.13;31.38;;;27.90;99.90;;;;;;4914292;29;20040;-77
2023/10/11 08:48:41;;;;;;;34.53;31.35;;;27.90;99.90;;;;;;4916592;29;20032;-77
2023/10/11 08:51:15;;;;;;;36.25;33.35;;;27.70;99.90;;;;;;4916646;29;20040;-77
2023/10/11 08:53:54;;;;;;;35.60;32.65;;;27.70;99.90;;;;;;4916554;29;20386;-76
2023/10/11 08:56:23;;;;;;;33.83;31.20;;;27.80;99.90;;;;;;4898215;29;20505;-77
2023/10/11 08:58:54;;;;;;;34.95;31.90;;;27.90;99.90;;;;;;4897648;29;20075;-77
2023/10/11 09:01:24;;;;;;;;;;;27.90;99.90;;;;;;4906078;29;20028;-77
2023/10/11 09:04:17;;;;;;;35.45;32.65;;;27.90;99.90;;;;;;4920755;29;20258;-77
2023/10/11 09:06:45;;;;;;;35.03;32.50;;;27.90;99.90;;;;;;4901326;29;20124;-77
2023/10/11 09:09:46;;;;;;;35.95;33.38;;;27.90;99.90;;;;;;4901321;29;20050;-77
2023/10/11 09:12:23;;;;;;;35.50;32.75;;;28.00;99.90;;;;;;4901397;29;20486;-78
2023/10/11 09:14:58;;;;;;;46.50;33.97;;;27.90;99.90;;;;;;4909791;29;20028;-77
2023/10/11 09:17:28;;;;;;;36.65;34.00;;;28.10;99.90;;;;;;4939092;29;20086;-77
2023/10/11 09:20:00;;;;;;;35.88;33.05;;;28.50;99.90;;;;;;4937944;29;20131;-77
2023/10/11 09:22:45;;;;;;;37.28;34.45;;;28.50;99.90;;;;;;4939105;29;20032;-77
2023/10/11 09:25:21;;;;;;;36.97;34.17;;;28.30;99.90;;;;;;4930053;29;20040;-77
2023/10/11 09:27:56;;;;;;;37.55;34.45;;;28.30;99.90;;;;;;4920019;29;20398;-77
2023/10/11 09:30:27;;;;;;;38.30;35.33;;;28.20;99.90;;;;;;4919962;29;20486;-77
2023/10/11 09:33:15;;;;;;;37.83;34.47;;;28.30;99.90;;;;;;4919871;29;20516;-77
2023/10/11 09:35:48;;;;;;;37.65;34.80;;;28.20;99.90;;;;;;4907135;29;20127;-77
2023/10/11 09:38:21;;;;;;;37.47;34.90;;;28.40;99.90;;;;;;4901010;29;20032;-77
2023/10/11 09:40:47;;;;;;;38.70;35.40;;;28.50;99.90;;;;;;4928550;29;20090;-77
2023/10/11 09:43:16;;;;;;;38.58;35.50;;;28.20;99.90;;;;;;4919757;29;20059;-77
2023/10/11 09:45:53;;;;;;;38.45;35.42;;;28.30;99.90;;;;;;4919325;29;20047;-77
2023/10/11 09:48:22;;;;;;;37.58;34.72;;;28.50;99.90;;;;;;4919596;29;20035;-77
2023/10/11 09:50:49;;;;;;;37.65;34.88;;;28.40;99.90;;;;;;4919556;29;20028;-77
2023/10/11 09:53:16;;;;;;;39.30;36.28;;;28.60;99.90;;;;;;4919540;29;20107;-77
2023/10/11 09:56:15;;;;;;;38.85;36.05;;;28.40;99.90;;;;;;4919257;29;20482;-79
2023/10/11 09:58:49;;;;;;;39.63;36.60;;;28.50;99.90;;;;;;4950006;29;20031;-79
2023/10/11 10:01:32;;;;;;;38.97;36.03;;;28.70;99.90;;;;;;4919449;29;20046;-79
2023/10/11 10:04:05;;;;;;;39.13;36.08;;;28.30;99.90;;;;;;4919150;29;20079;-79
2023/10/11 10:06:33;;;;;;;39.47;36.28;;;28.50;99.90;;;;;;4900615;29;20036;-79
2023/10/11 10:09:23;;;;;;;38.97;35.90;;;28.50;99.90;;;;;;4900409;29;20020;-79
2023/10/11 10:12:25;;;;;;;38.85;35.72;;;28.50;99.90;;;;;;4899391;29;20033;-79
2023/10/11 10:15:23;;;;;;;38.17;35.30;;;28.70;99.90;;;;;;4908515;29;20094;-79
2023/10/11 10:17:56;;;;;;;38.60;35.47;;;28.70;99.90;;;;;;4924384;29;20036;-79
2023/10/11 10:20:38;;;;;;;38.40;35.15;;;28.60;99.90;;;;;;4938145;29;20055;-79
2023/10/11 10:23:17;;;;;;;38.13;35.40;;;28.50;99.90;;;;;;4938058;29;20050;-78
2023/10/11 10:25:48;;;;;;;38.60;35.40;;;28.70;99.90;;;;;;4925570;29;20047;-79
2023/10/11 10:28:34;;;;;;;37.50;34.70;;;28.60;99.90;;;;;;4922786;29;20130;-78
2023/10/11 10:31:05;;;;;;;38.25;35.28;;;28.60;99.90;;;;;;4938142;29;20060;-79
2023/10/11 10:33:35;;;;;;;38.75;35.58;;;28.60;99.90;;;;;;4937905;29;20051;-79
2023/10/11 10:36:28;;;;;;;38.60;35.42;;;28.60;99.90;;;;;;4923419;29;20075;-79
2023/10/11 10:39:01;;;;;;;39.10;35.90;;;28.60;99.90;;;;;;4918850;29;20103;-79
2023/10/11 10:41:30;;;;;;;39.58;36.67;;;28.60;99.90;;;;;;4918599;29;20393;-79
2023/10/11 10:44:14;;;;;;;39.03;35.97;;;28.60;99.90;;;;;;4918624;29;20020;-79
2023/10/11 10:46:53;;;;;;;39.63;36.45;;;28.50;99.90;;;;;;4899736;29;20040;-81
2023/10/11 10:49:23;;;;;;;38.55;35.67;;;28.50;99.90;;;;;;4899738;29;20024;-78
2023/10/11 10:51:51;;;;;;;37.58;34.83;;;28.50;99.90;;;;;;4899652;29;20054;-80
2023/10/11 10:54:22;;;;;;;39.45;36.28;;;28.40;99.90;;;;;;4899893;29;20055;-79
2023/10/11 10:56:53;;;;;;;38.47;35.65;;;28.40;99.90;;;;;;4920652;29;20024;-78
2023/10/11 10:59:21;;;;;;;38.45;35.25;;;28.20;99.90;;;;;;4918448;29;20059;-78
2023/10/11 11:01:50;;;;;;;38.40;35.40;;;28.30;99.90;;;;;;4918335;29;20477;-78
2023/10/11 11:04:22;;;;;;;38.13;35.08;;;28.40;99.90;;;;;;4917913;29;20051;-78
2023/10/11 11:06:50;;;;;;;38.92;35.85;;;28.50;99.90;;;;;;4918070;29;20048;-79
2023/10/11 11:09:27;;;;;;;37.97;35.22;;;28.40;99.90;;;;;;4918178;29;20545;-79
2023/10/11 11:12:04;;;;;;;38.50;35.40;;;28.40;99.90;;;;;;4918189;29;20028;-78
2023/10/11 11:14:30;;;;;;;39.25;36.05;;;28.20;99.90;;;;;;4918087;29;20457;-78
2023/10/11 11:16:58;;;;;;;38.92;35.83;;;28.30;99.90;;;;;;4918088;29;20026;-78
2023/10/11 11:19:34;;;;;;;37.75;35.10;;;28.50;99.90;;;;;;4917996;29;20111;-79
2023/10/11 11:22:15;;;;;;;38.63;35.35;;;28.70;99.90;;;;;;4917930;29;20034;-78
2023/10/11 11:24:43;;;;;;;38.42;35.20;;;28.50;99.90;;;;;;4929440;29;20066;-78
2023/10/11 11:27:25;;;;;;;39.20;36.10;;;28.50;99.90;;;;;;4917871;29;20028;-79
2023/10/11 11:29:53;;;;;;;;;;;28.40;99.90;;;;;;4948618;29;20051;-78
2023/10/11 11:32:41;;;;;;;39.15;36.08;;;28.40;99.90;;;;;;4917751;29;19945;-78
2023/10/11 11:35:28;;;;;;;39.45;36.35;;;28.60;99.90;;;;;;4921657;29;20585;-78
2023/10/11 11:38:05;;;;;;;38.25;35.45;;;28.30;99.90;;;;;;4948287;29;20032;-78
2023/10/11 11:40:46;;;;;;;39.25;35.95;;;28.10;99.90;;;;;;4917749;29;20131;-78
2023/10/11 11:43:19;;;;;;;38.58;35.83;;;28.20;99.90;;;;;;4917936;29;20158;-78
2023/10/11 11:45:57;;;;;;;38.83;35.78;;;28.40;99.90;;;;;;4906154;29;20037;-80
2023/10/11 11:48:23;;;;;;;38.38;35.30;;;28.80;99.90;;;;;;4898972;29;20036;-79
2023/10/11 11:50:50;;;;;;;40.35;36.60;;;28.70;99.90;;;;;;4901179;29;20386;-78
2023/10/11 11:53:18;;;;;;;42.85;38.97;;;28.70;99.90;;;;;;4898561;29;20033;-78
2023/10/11 11:55:48;;;;;;;40.00;36.53;;;28.70;99.90;;;;;;4909391;29;20031;-79
2023/10/11 11:58:17;;;;;;;39.60;36.33;;;28.30;99.90;;;;;;4917450;29;20111;-80
2023/10/11 12:03:54;;;;;;;38.45;35.70;;;28.50;99.90;;;;;;4914778;29;20083;-78
2023/10/11 12:06:23;;;;;;;39.40;36.05;;;28.60;99.90;;;;;;4890346;29;20096;-78
2023/10/11 12:09:00;;;;;;;40.60;37.03;;;28.60;99.90;;;;;;4915121;29;20127;-78
2023/10/11 12:11:28;;;;;;;39.25;36.28;;;28.70;99.90;;;;;;4914962;29;20430;-79
2023/10/11 12:14:00;;;;;;;39.20;36.33;;;28.60;99.90;;;;;;4899410;29;20119;-78
2023/10/11 12:16:28;;;;;;;38.80;36.25;;;28.40;99.90;;;;;;4899130;29;20386;-80
2023/10/11 12:19:00;;;;;;;38.90;36.05;;;28.40;99.90;;;;;;4896095;29;20487;-81
2023/10/11 12:21:28;;;;;;;39.13;35.97;;;28.30;99.90;;;;;;4896172;29;20033;-78
2023/10/11 12:23:56;;;;;;;38.00;35.13;;;28.30;99.90;;;;;;4895841;29;20697;-79
2023/10/11 12:26:26;;;;;;;39.25;36.08;;;28.50;99.90;;;;;;4911361;29;20048;-80
2023/10/11 12:28:52;;;;;;;39.70;35.88;;;28.70;99.90;;;;;;4898508;29;20028;-80
2023/10/11 12:31:19;;;;;;;38.20;35.38;;;28.40;99.90;;;;;;4914746;29;20052;-81
2023/10/11 12:33:46;;;;;;;38.25;35.45;;;28.10;99.90;;;;;;4914848;29;20039;-79
2023/10/11 12:36:15;;;;;;;39.15;36.05;;;28.20;99.90;;;;;;4900379;29;20035;-79
2023/10/11 12:38:41;;;;;;;39.40;36.50;;;28.30;99.90;;;;;;4880983;29;20045;-79
2023/10/11 12:41:14;;;;;;;38.85;35.97;;;28.50;99.90;;;;;;4879344;29;20554;-79
2023/10/11 12:43:40;;;;;;;39.28;35.97;;;28.50;99.90;;;;;;4879526;29;20490;-83
2023/10/11 12:46:07;;;;;;;39.08;35.75;;;28.50;99.90;;;;;;4891056;29;20509;-80
2023/10/11 12:48:36;;;;;;;40.22;37.00;;;28.40;99.90;;;;;;4898107;29;20029;-80
2023/10/11 12:51:05;;;;;;;38.65;35.92;;;28.60;99.90;;;;;;4898017;29;20486;-79
2023/10/11 12:53:31;;;;;;;39.55;36.35;;;28.80;99.90;;;;;;4898008;29;20032;-79
2023/10/11 12:55:57;;;;;;;39.00;36.10;;;28.60;99.90;;;;;;4897815;29;20080;-79
2023/10/11 12:58:50;;;;;;;38.90;35.92;;;28.70;99.90;;;;;;4897796;29;20485;-79
2023/10/11 13:01:14;;;;;;;38.67;35.53;;;28.80;99.90;;;;;;4898189;29;20044;-79
2023/10/11 13:03:42;;;;;;;38.30;35.38;;;28.90;99.90;;;;;;4896479;29;20172;-80
2023/10/11 13:06:10;;;;;;;40.03;35.90;;;28.90;99.90;;;;;;4916526;29;20044;-81
2023/10/11 13:08:40;;;;;;;38.13;35.08;;;28.70;99.90;;;;;;4899863;29;20031;-81
2023/10/11 13:11:12;;;;;;;40.10;36.25;;;28.50;99.90;;;;;;4915514;29;20031;-80
2023/10/11 13:13:40;;;;;;;38.25;35.30;;;28.50;99.90;;;;;;4916643;29;20029;-79
2023/10/11 13:16:08;;;;;;;38.67;35.40;;;28.40;99.90;;;;;;4916564;29;20087;-79
2023/10/11 13:18:38;;;;;;;40.63;37.10;;;28.50;99.90;;;;;;4915260;29;20127;-79
2023/10/11 13:21:10;;;;;;;38.80;35.67;;;28.50;99.90;;;;;;4917072;29;20028;-79
2023/10/11 13:23:39;;;;;;;38.55;35.25;;;28.50;99.90;;;;;;4916834;29;20024;-80
2023/10/11 13:26:09;;;;;;;38.22;35.55;;;28.50;99.90;;;;;;4920122;29;20040;-79
2023/10/11 13:28:37;;;;;;;38.83;36.10;;;28.50;99.90;;;;;;4916423;29;20033;-80
2023/10/11 13:31:04;;;;;;;38.20;35.40;;;28.30;99.90;;;;;;4915198;29;20028;-80
2023/10/11 13:33:32;;;;;;;39.13;36.20;;;28.30;99.90;;;;;;4916316;29;20032;-81
2023/10/11 13:35:59;;;;;;;38.22;35.28;;;28.00;99.90;;;;;;4916289;29;20359;-80
2023/10/11 13:38:30;;;;;;;37.35;34.60;;;28.10;99.90;;;;;;4915141;29;20033;-80
2023/10/11 13:40:58;;;;;;;38.17;35.45;;;28.10;99.90;;;;;;4916465;29;20059;-81
2023/10/11 13:43:25;;;;;;;38.20;35.42;;;28.10;99.90;;;;;;4915222;29;20024;-81
2023/10/11 13:46:06;;;;;;;38.60;35.55;;;28.10;99.90;;;;;;4916059;29;20040;-81
2023/10/11 13:48:43;;;;;;;38.58;35.40;;;28.20;99.90;;;;;;4918629;29;20063;-82
2023/10/11 13:51:17;;;;;;;39.40;35.95;;;28.20;99.90;;;;;;4919882;29;20438;-81
2023/10/11 13:53:44;;;;;;;40.20;36.85;;;28.20;99.90;;;;;;4918528;29;20395;-81
2023/10/11 13:56:35;;;;;;;38.17;35.15;;;28.00;99.90;;;;;;4905889;29;20068;-81
2023/10/11 13:59:02;;;;;;;39.60;36.58;;;27.80;99.90;;;;;;4899663;29;20482;-80
2023/10/11 14:04:14;;;;;;;39.15;35.92;;;28.00;99.90;;;;;;4930889;29;20132;-81
2023/10/11 14:06:46;;;;;;;39.20;36.25;;;28.10;99.90;;;;;;4947239;29;20040;-81
2023/10/11 14:09:29;;;;;;;38.97;35.90;;;27.70;99.90;;;;;;4919624;29;20482;-81
2023/10/11 14:11:56;;;;;;;39.42;36.50;;;27.60;99.90;;;;;;4919769;29;20118;-84
2023/10/11 14:14:24;;;;;;;39.03;35.88;;;27.60;99.90;;;;;;4919888;29;20075;-81
2023/10/11 14:16:52;;;;;;;38.90;35.80;;;27.50;99.90;;;;;;4902299;29;20025;-79
2023/10/11 14:19:19;;;;;;;38.78;35.88;;;27.50;99.90;;;;;;4900389;29;20028;-79
2023/10/11 14:21:47;;;;;;;39.22;36.13;;;27.20;99.90;;;;;;4900315;29;20053;-79
2023/10/11 14:24:18;;;;;;;37.75;35.25;;;27.20;99.90;;;;;;4900176;29;20033;-79
2023/10/11 14:26:44;;;;;;;39.08;35.72;;;27.30;99.90;;;;;;4916649;29;20100;-79
2023/10/11 14:29:11;;;;;;;38.95;35.63;;;27.00;99.90;;;;;;4919283;29;20389;-79
2023/10/11 14:31:37;;;;;;;38.92;36.10;;;27.10;99.90;;;;;;4918910;29;20103;-79
2023/10/11 14:34:04;;;;;;;38.97;35.90;;;27.30;99.90;;;;;;4919016;29;20616;-79
2023/10/11 14:36:31;;;;;;;38.72;35.70;;;27.30;99.90;;;;;;4904249;29;20029;-79
2023/10/11 14:39:00;;;;;;;38.17;35.38;;;27.10;99.90;;;;;;4930328;29;20107;-79
2023/10/11 14:41:28;;;;;;;37.83;35.25;;;27.00;99.90;;;;;;4900196;29;20100;-79
2023/10/11 14:43:56;;;;;;;37.67;34.97;;;26.90;99.90;;;;;;4900131;29;20043;-79
2023/10/11 14:46:23;;;;;;;37.10;34.20;;;26.70;99.90;;;;;;4913332;29;20143;-80
2023/10/11 14:48:51;;;;;;;37.42;34.15;;;26.60;99.90;;;;;;4918805;29;20025;-79
2023/10/11 14:51:20;;;;;;;36.80;33.97;;;26.60;99.90;;;;;;4918834;29;20036;-79
2023/10/11 14:53:48;;;;;;;38.00;34.47;;;26.70;99.90;;;;;;4918838;29;20086;-79
2023/10/11 14:56:16;;;;;;;36.05;33.25;;;26.70;99.90;;;;;;4906591;29;20024;-80
2023/10/11 14:58:43;;;;;;;37.70;34.60;;;26.50;99.90;;;;;;4899695;29;20024;-79
2023/10/11 15:01:14;;;;;;;36.80;33.78;;;26.50;99.90;;;;;;4900002;29;20368;-79
2023/10/11 15:03:41;;;;;;;35.45;32.78;;;26.40;99.90;;;;;;4900025;29;20028;-79
2023/10/11 15:06:10;;;;;;;36.17;33.45;;;26.40;99.90;;;;;;4910787;29;20047;-79
2023/10/11 15:08:41;;;;;;;35.45;32.80;;;26.40;99.90;;;;;;4918361;29;20032;-79
2023/10/11 15:11:11;;;;;;;35.95;33.15;;;26.40;99.90;;;;;;4918153;29;20056;-79
2023/10/11 15:13:41;;;;;;;34.78;32.30;;;26.30;99.90;;;;;;4918156;29;20537;-79
2023/10/11 15:16:07;;;;;;;37.55;34.33;;;26.40;99.90;;;;;;4911589;29;20028;-79
2023/10/11 15:18:34;;;;;;;35.25;32.47;;;26.10;99.90;;;;;;4919760;29;20034;-79
2023/10/11 15:21:02;;;;;;;35.58;33.03;;;26.00;99.90;;;;;;4935794;29;20040;-79
2023/10/11 15:23:31;;;;;;;35.45;32.83;;;25.90;99.90;;;;;;4937205;29;20493;-79
2023/10/11 15:26:01;;;;;;;35.70;32.85;;;25.80;99.90;;;;;;4926254;29;20090;-79
2023/10/11 15:28:30;;;;;;;35.58;32.58;;;25.80;99.90;;;;;;4917078;29;20397;-79
2023/10/11 15:31:00;;;;;;;35.40;32.58;;;25.70;99.90;;;;;;4918344;29;20035;-79
2023/10/11 15:33:27;;;;;;;35.47;32.65;;;25.60;99.90;;;;;;4918345;29;20032;-79
2023/10/11 15:35:56;;;;;;;34.22;31.63;;;25.50;99.90;;;;;;4909317;29;20486;-79
2023/10/11 15:38:27;;;;;;;34.17;31.45;;;25.40;99.90;;;;;;4898350;29;20039;-80
2023/10/11 15:41:04;;;;;;;34.00;31.42;;;25.40;99.90;;;;;;4899191;29;20123;-79
2023/10/11 15:43:35;;;;;;;34.72;31.98;;;25.30;99.90;;;;;;4897994;29;20036;-79
2023/10/11 15:46:03;;;;;;;33.88;31.23;;;25.20;99.90;;;;;;4938832;29;20107;-79
2023/10/11 15:48:30;;;;;;;34.40;31.67;;;25.10;99.90;;;;;;4917956;29;20028;-79
2023/10/11 15:51:13;;;;;;;33.42;30.65;;;25.00;99.90;;;;;;4909118;29;20115;-79
2023/10/11 15:53:42;;;;;;;33.03;30.52;;;24.90;99.90;;;;;;4929427;29;20048;-79
2023/10/11 15:56:13;;;;;;;34.08;30.85;;;24.90;99.90;;;;;;4913755;29;20445;-79
2023/10/11 15:58:40;;;;;;;33.17;30.30;;;24.80;99.90;;;;;;4925851;29;20028;-79
2023/10/11 16:01:08;;;;;;;31.73;29.38;;;24.70;99.90;;;;;;4917309;29;20103;-79
2023/10/11 16:03:39;;;;;;;33.08;30.08;;;24.70;99.90;;;;;;4917563;29;20036;-79
2023/10/11 16:06:10;;;;;;;32.83;30.23;;;24.60;99.90;;;;;;4921298;29;20457;-79
2023/10/11 16:08:38;;;;;;;32.05;29.48;;;24.50;99.90;;;;;;4936016;29;20035;-79
2023/10/11 16:11:10;;;;;;;31.67;29.02;;;24.40;99.90;;;;;;4935666;29;20228;-79
2023/10/11 16:13:37;;;;;;;33.05;29.80;;;24.30;99.90;;;;;;4936375;29;20039;-79
2023/10/11 16:16:07;;;;;;;33.20;30.20;;;24.20;99.90;;;;;;4926850;29;20103;-80
2023/10/11 16:18:34;;;;;;;36.28;31.88;;;24.10;99.90;;;;;;4900385;29;20056;-80
2023/10/11 16:21:03;;;;;;;43.20;32.38;;;24.00;99.90;;;;;;4917497;29;20035;-81
2023/10/11 16:23:33;;;;;;;36.25;31.52;;;23.90;99.90;;;;;;4917520;29;20111;-79
2023/10/11 16:26:01;;;;;;;34.30;30.42;;;23.80;99.90;;;;;;4921071;29;20076;-79
2023/10/11 16:28:29;;;;;;;33.67;29.98;;;23.60;99.90;;;;;;4936430;29;20039;-79
2023/10/11 16:30:58;;;;;;;32.88;29.40;;;23.40;99.90;;;;;;4936394;29;20074;-79
2023/10/11 16:33:25;;;;;;;32.45;28.77;;;23.30;99.90;;;;;;4935010;29;20507;-79
2023/10/11 16:35:53;;;;;;;31.33;28.08;;;23.20;99.90;;;;;;4928192;29;20043;-79
2023/10/11 16:38:20;;;;;;;40.17;29.73;;;23.10;99.90;;;;;;4916754;29;20473;-78
2023/10/11 16:40:47;;;;;;;47.95;30.88;;;22.90;99.90;;;;;;4916716;29;20115;-79
2023/10/11 16:43:13;;;;;;;44.10;32.03;;;22.80;99.90;;;;;;4916774;29;20496;-79
2023/10/11 16:45:41;;;;;;;47.40;32.13;;;22.70;99.90;;;;;;4916124;29;20063;-79
2023/10/11 16:48:12;;;;;;;46.97;34.45;;;22.60;99.90;;;;;;4935676;29;20118;-79
2023/10/11 16:50:39;;;;;;;47.38;34.65;;;22.60;99.90;;;;;;4935739;29;20024;-79
2023/10/11 16:53:08;;;;;;;52.33;34.55;;;22.60;99.90;;;;;;4934363;29;20389;-78
2023/10/11 16:55:35;;;;;;;60.80;35.65;;;22.50;99.90;;;;;;4930429;29;20036;-78
2023/10/11 16:58:03;;;;;;;46.00;32.35;;;22.40;99.90;;;;;;4931743;29;20028;-79
2023/10/11 17:00:34;;;;;;;46.28;32.95;;;22.30;99.90;;;;;;4916522;29;20405;-79
2023/10/11 17:03:02;;;;;;;42.28;31.98;;;22.30;99.90;;;;;;4917817;29;20035;-78
2023/10/11 17:05:37;;;;;;;42.28;31.60;;;22.20;99.90;;;;;;4921403;29;20213;-78
2023/10/11 17:08:14;;;;;;;61.60;37.70;;;22.20;99.90;;;;;;4924261;29;20087;-79
2023/10/11 17:10:46;;;;;;;52.60;35.85;;;22.10;99.90;;;;;;4923016;29;20063;-78
2023/10/11 17:13:14;;;;;;;55.22;33.42;;;22.10;99.90;;;;;;4918689;29;20414;-78
2023/10/11 17:15:43;;;;;;;54.38;33.05;;;22.00;99.90;;;;;;4917009;29;20035;-78
2023/10/11 17:18:10;;;;;;;53.70;32.70;;;21.90;99.90;;;;;;4930331;29;20060;-77
2023/10/11 17:20:37;;;;;;;49.15;32.92;;;21.90;99.90;;;;;;4933128;29;20110;-78
2023/10/11 17:23:07;;;;;;;51.60;32.50;;;21.70;99.90;;;;;;4939556;29;20107;-78
2023/10/11 17:25:34;;;;;;;39.20;31.23;;;21.70;99.90;;;;;;4934912;29;20028;-78
2023/10/11 17:28:01;;;;;;;40.00;31.33;;;21.60;99.90;;;;;;4920486;29;20406;-78
2023/10/11 17:30:31;;;;;;;46.70;31.40;;;21.50;99.90;;;;;;4934978;29;20031;-78
2023/10/11 17:33:03;;;;;;;35.20;30.95;;;21.40;99.90;;;;;;4938706;29;20370;-78
2023/10/11 17:35:36;;;;;;;44.33;31.88;;;21.30;99.90;;;;;;4934721;29;20110;-78
2023/10/11 17:38:03;;;;;;;44.20;32.38;;;21.30;99.90;;;;;;4919971;29;20390;-78
2023/10/11 17:40:30;;;;;;;40.47;31.30;;;21.30;99.90;;;;;;4920062;29;20107;-78
2023/10/11 17:43:00;;;;;;;46.15;32.63;;;21.30;99.90;;;;;;4918862;29;20394;-78
2023/10/11 17:45:33;;;;;;;36.55;31.58;;;21.40;99.90;;;;;;4919695;29;20171;-78
2023/10/11 17:48:02;;;;;;;37.58;30.92;;;21.40;99.90;;;;;;4919533;29;20520;-78
2023/10/11 17:50:29;;;;;;;41.03;30.10;;;21.40;99.90;;;;;;4920935;29;20513;-78
2023/10/11 17:52:56;;;;;;;32.70;28.95;;;21.50;99.90;;;;;;4911861;29;20071;-77
2023/10/11 17:55:26;;;;;;;34.40;28.98;;;21.40;99.90;;;;;;4929003;29;20027;-76
2023/10/11 17:57:53;;;;;;;33.53;28.88;;;21.40;99.90;;;;;;4935130;29;20123;-77
2023/10/11 18:00:22;;;;;;;35.58;27.75;;;21.30;99.90;;;;;;4920395;29;20481;-78
2023/10/11 18:02:50;;;;;;;32.10;28.25;;;21.30;99.90;;;;;;4919447;29;20044;-77
2023/10/11 18:05:18;;;;;;;33.05;28.73;;;21.20;99.90;;;;;;4924571;29;20096;-77
2023/10/11 18:07:50;;;;;;;32.92;27.83;;;21.10;99.90;;;;;;4920945;29;20111;-77
2023/10/11 18:10:18;;;;;;;36.55;29.05;;;21.10;99.90;;;;;;4920353;29;20107;-77
2023/10/11 18:12:50;;;;;;;32.03;28.80;;;21.00;99.90;;;;;;4920149;29;20104;-77
2023/10/11 18:15:18;;;;;;;34.65;28.45;;;21.00;99.90;;;;;;4919409;29;20036;-76
2023/10/11 18:17:49;;;;;;;36.00;28.58;;;21.00;99.90;;;;;;4919424;29;20578;-77
2023/10/11 18:20:17;;;;;;;39.60;29.77;;;21.00;99.90;;;;;;4926735;29;20027;-77
2023/10/11 18:22:45;;;;;;;31.73;28.35;;;21.00;99.90;;;;;;4938706;29;20028;-77
2023/10/11 18:25:15;;;;;;;30.25;27.02;;;21.00;99.90;;;;;;4921657;29;20099;-76
2023/10/11 18:27:49;;;;;;;31.67;27.48;;;21.10;99.90;;;;;;4919455;29;20486;-78
2023/10/11 18:30:19;;;;;;;31.90;28.63;;;21.00;99.90;;;;;;4919386;29;20040;-77
2023/10/11 18:32:50;;;;;;;31.63;28.30;;;21.00;99.90;;;;;;4901504;29;20298;-77
2023/10/11 18:35:17;;;;;;;35.33;28.10;;;21.00;99.90;;;;;;4918936;29;20032;-78
2023/10/11 18:37:45;;;;;;;32.47;28.67;;;20.90;99.90;;;;;;4919249;29;20185;-77
2023/10/11 18:40:30;;;;;;;31.25;28.30;;;20.90;99.90;;;;;;4922346;29;20099;-76
2023/10/11 18:42:59;;;;;;;30.77;27.73;;;20.80;99.90;;;;;;4900965;29;20059;-77
2023/10/11 18:45:25;;;;;;;35.47;27.60;;;20.80;99.90;;;;;;4918305;29;20047;-80
2023/10/11 18:47:53;;;;;;;31.13;26.50;;;20.60;99.90;;;;;;4921657;29;20032;-85
2023/10/11 18:50:21;;;;;;;40.40;28.30;;;20.40;99.90;;;;;;4911686;29;20024;-80
2023/10/11 18:52:54;;;;;;;31.55;28.17;;;20.30;99.90;;;;;;4939903;29;20038;-80
2023/10/11 18:55:21;;;;;;;32.15;28.00;;;20.30;99.90;;;;;;4936023;29;20470;-80
2023/10/11 18:57:48;;;;;;;32.40;27.52;;;20.20;99.90;;;;;;4929153;29;20044;-81
2023/10/11 19:00:15;;;;;;;36.88;27.80;;;20.20;99.90;;;;;;4933065;29;20032;-81
2023/10/11 19:02:44;;;;;;;31.30;28.00;;;20.20;99.90;;;;;;4919315;29;20040;-85
2023/10/11 19:05:12;;;;;;;32.47;28.65;;;20.30;99.90;;;;;;4918032;29;20514;-81
2023/10/11 19:07:39;;;;;;;33.58;28.73;;;20.30;99.90;;;;;;4918538;29;20032;-81
2023/10/11 19:10:07;;;;;;;33.35;28.63;;;20.30;99.90;;;;;;4949304;29;20035;-80